Time;durP1;ratioP1;P1;durP2;ratioP2;P2;SDS_P1;SDS_P2;PMS_P1;PMS_P2;Temp;Humidity;BMP_temperature;BMP_pressure;BME280_temperature;BME280_humidity;BME280_pressure;Samples;Min_cycle;Max_cycle;Signal;HPM_P1;HPM_P2
2021/08/04 00:01:46;;;;;;;3.08;2.88;;;;;;;20.01;63.19;100464.28;5024371;28;20059;-45
2021/08/04 00:04:11;;;;;;;3.47;3.17;;;;;;;20.02;63.32;100471.34;5027464;28;20112;-45
2021/08/04 00:06:38;;;;;;;3.55;3.25;;;;;;;20.02;63.00;100467.78;5028956;28;20030;-45
2021/08/04 00:09:04;;;;;;;3.50;3.20;;;;;;;19.99;63.15;100456.31;5024202;28;20449;-46
2021/08/04 00:11:29;;;;;;;3.38;3.08;;;;;;;20.00;63.23;100459.84;5029075;28;20389;-45
2021/08/04 00:13:55;;;;;;;3.25;3.05;;;;;;;19.98;62.99;100467.06;5027705;28;20033;-45
2021/08/04 00:16:20;;;;;;;3.50;3.20;;;;;;;19.98;63.31;100469.75;5026667;28;20366;-46
2021/08/04 00:18:45;;;;;;;3.33;3.03;;;;;;;19.95;63.16;100467.22;5009182;28;20056;-45
2021/08/04 00:21:10;;;;;;;3.88;3.47;;;;;;;19.98;63.28;100469.75;5029400;28;20435;-45
2021/08/04 00:23:36;;;;;;;3.22;3.03;;;;;;;19.95;63.23;100465.44;5029139;28;20496;-45
2021/08/04 00:26:01;;;;;;;3.30;3.05;;;;;;;19.95;63.15;100470.78;5027133;28;20009;-45
2021/08/04 00:28:26;;;;;;;3.75;3.45;;;;;;;19.98;63.30;100467.06;5029407;28;20037;-45
2021/08/04 00:30:57;;;;;;;3.65;3.35;;;;;;;19.99;63.22;100463.44;5029091;28;20028;-46
2021/08/04 00:33:22;;;;;;;;;;;;;;;19.96;63.08;100467.16;5029494;28;20033;-45
2021/08/04 00:35:48;;;;;;;4.73;3.23;;;;;;;19.96;63.17;100480.53;5029817;28;20399;-45
2021/08/04 00:38:14;;;;;;;3.75;3.45;;;;;;;19.96;63.15;100468.94;5025812;28;20983;-45
2021/08/04 00:40:40;;;;;;;4.45;3.50;;;;;;;19.96;63.46;100474.31;5029185;28;20037;-45
2021/08/04 00:43:06;;;;;;;4.10;3.10;;;;;;;19.93;63.33;100467.31;5032959;28;20025;-45
2021/08/04 00:46:18;;;;;;;3.63;3.33;;;;;;;19.96;63.21;100479.66;5032331;28;20017;-46
2021/08/04 00:48:44;;;;;;;3.70;3.45;;;;;;;19.94;63.41;100477.06;5034004;28;20041;-46
2021/08/04 00:51:09;;;;;;;4.15;3.83;;;;;;;19.94;63.59;100476.22;5031096;28;20544;-46
2021/08/04 00:53:36;;;;;;;4.25;3.85;;;;;;;19.95;63.56;100477.94;5024396;28;20523;-46
2021/08/04 00:56:01;;;;;;;3.60;3.30;;;;;;;19.96;63.52;100485.00;5030497;28;20484;-46
2021/08/04 00:58:42;;;;;;;3.58;3.28;;;;;;;19.95;63.36;100477.94;5031958;28;20029;-45
2021/08/04 01:01:21;;;;;;;3.55;3.25;;;;;;;19.92;63.36;100478.09;5029284;28;20551;-46
2021/08/04 01:03:53;;;;;;;4.00;3.47;;;;;;;19.94;63.46;100476.22;5009033;28;20120;-45
2021/08/04 01:06:43;;;;;;;4.05;3.45;;;;;;;19.94;63.39;100477.06;5023286;28;20072;-46
2021/08/04 01:09:09;;;;;;;3.60;3.30;;;;;;;19.91;63.53;100477.22;5012282;28;20041;-46
2021/08/04 01:11:37;;;;;;;3.60;3.30;;;;;;;19.94;63.59;100470.84;5014668;28;20063;-45
2021/08/04 01:14:05;;;;;;;3.65;3.13;;;;;;;19.94;63.71;100478.88;5011074;28;20096;-45
2021/08/04 01:16:32;;;;;;;3.45;3.15;;;;;;;19.91;63.66;100476.38;5014356;28;20028;-45
2021/08/04 01:19:20;;;;;;;3.80;3.50;;;;;;;19.95;63.64;100483.28;5014453;28;20031;-45
2021/08/04 01:22:02;;;;;;;4.15;3.65;;;;;;;19.93;63.45;100480.69;5001877;28;20099;-45
2021/08/04 01:24:35;;;;;;;3.30;3.10;;;;;;;19.93;63.64;100474.44;5030517;28;20014;-45
2021/08/04 01:27:01;;;;;;;3.70;3.40;;;;;;;19.93;63.34;100485.16;5010569;28;20048;-45
2021/08/04 01:29:27;;;;;;;3.38;3.08;;;;;;;19.92;63.82;100478.97;5031722;28;20021;-46
2021/08/04 01:31:56;;;;;;;4.28;3.88;;;;;;;19.94;63.87;100481.56;5013783;28;20037;-45
2021/08/04 01:34:21;;;;;;;3.65;3.35;;;;;;;19.95;64.00;100477.94;5031657;28;20385;-44
2021/08/04 01:36:47;;;;;;;3.95;3.47;;;;;;;19.92;64.12;100473.59;5012283;28;20504;-46
2021/08/04 01:39:14;;;;;;;3.90;3.50;;;;;;;19.93;63.75;100471.78;5012778;28;20053;-46
2021/08/04 01:41:41;;;;;;;3.50;3.20;;;;;;;19.92;63.78;100472.72;5012721;28;20489;-45
2021/08/04 01:44:07;;;;;;;4.15;3.75;;;;;;;19.91;63.94;100466.50;5012205;28;20068;-46
2021/08/04 01:46:33;;;;;;;4.10;3.80;;;;;;;19.92;63.89;100472.72;5008495;28;20029;-45
2021/08/04 01:49:00;;;;;;;3.72;3.42;;;;;;;19.90;63.85;100474.63;5012058;28;20507;-45
2021/08/04 01:51:26;;;;;;;4.03;3.50;;;;;;;19.90;63.88;100458.59;5012843;28;20476;-45
2021/08/04 01:53:54;;;;;;;3.92;3.63;;;;;;;19.92;63.84;100470.06;5013304;28;20033;-45
2021/08/04 01:56:19;;;;;;;3.67;3.38;;;;;;;19.92;63.71;100467.38;5008889;28;20040;-45
2021/08/04 01:58:44;;;;;;;3.65;3.35;;;;;;;19.90;64.03;100467.47;5029262;28;20490;-45
2021/08/04 02:01:10;;;;;;;4.15;3.65;;;;;;;19.87;63.80;100465.81;5029315;28;20022;-45
2021/08/04 02:03:36;;;;;;;3.90;3.60;;;;;;;19.91;64.06;100457.63;5030896;28;20029;-46
2021/08/04 02:06:07;;;;;;;4.70;3.65;;;;;;;19.90;64.10;100456.75;5029906;28;20053;-45
2021/08/04 02:08:43;;;;;;;3.35;3.08;;;;;;;19.88;63.84;100459.50;5023056;28;20104;-43
2021/08/04 02:11:20;;;;;;;5.00;4.10;;;;;;;19.85;63.68;100461.50;5032288;28;20068;-43
2021/08/04 02:13:51;;;;;;;4.30;3.90;;;;;;;19.86;64.01;100463.22;5017097;28;20477;-44
2021/08/04 02:16:43;;;;;;;3.67;3.38;;;;;;;19.88;63.79;100455.97;5032929;28;20389;-44
2021/08/04 02:22:57;;;;;;;4.03;3.72;;;;;;;19.86;64.10;100450.72;5031424;28;20159;-43
2021/08/04 02:25:34;;;;;;;3.75;3.45;;;;;;;19.85;64.15;100451.63;5019620;28;20168;-43
2021/08/04 02:28:00;;;;;;;4.32;3.92;;;;;;;19.85;64.32;100456.97;5024825;28;20057;-43
2021/08/04 02:30:27;;;;;;;4.38;3.97;;;;;;;19.84;64.14;100454.41;5034846;28;20512;-45
2021/08/04 02:32:52;;;;;;;4.47;4.10;;;;;;;19.84;64.44;100460.63;5028004;28;20025;-47
2021/08/04 02:35:18;;;;;;;3.92;3.53;;;;;;;19.84;63.71;100454.41;5032061;28;20028;-43
2021/08/04 02:37:44;;;;;;;3.80;3.45;;;;;;;19.86;64.26;100464.09;5032718;28;20484;-43
2021/08/04 02:40:10;;;;;;;3.72;3.42;;;;;;;19.85;64.09;100448.09;5043778;28;20029;-43
2021/08/04 02:42:40;;;;;;;3.72;3.42;;;;;;;19.82;64.18;100456.28;5036481;28;20052;-43
2021/08/04 02:45:06;;;;;;;4.35;3.95;;;;;;;19.83;64.28;100450.84;5023983;28;20025;-43
2021/08/04 02:47:32;;;;;;;4.18;3.85;;;;;;;19.82;64.23;100451.81;5024068;28;20029;-44
2021/08/04 02:49:59;;;;;;;4.00;3.70;;;;;;;19.81;64.30;100449.22;5031239;28;20112;-43
2021/08/04 02:52:25;;;;;;;4.40;4.00;;;;;;;19.81;64.22;100460.75;5031394;28;20030;-43
2021/08/04 02:54:50;;;;;;;4.10;3.50;;;;;;;19.82;64.23;100461.63;5037762;28;20056;-43
2021/08/04 02:57:15;;;;;;;3.15;2.95;;;;;;;19.80;64.04;100459.03;5030736;28;20018;-44
2021/08/04 02:59:44;;;;;;;3.55;3.25;;;;;;;19.81;64.15;100471.47;5031760;28;20033;-43
2021/08/04 03:02:09;;;;;;;3.55;3.25;;;;;;;19.81;64.19;100455.41;5032139;28;20565;-43
2021/08/04 03:04:34;;;;;;;4.07;3.78;;;;;;;19.80;64.14;100466.19;5024634;28;20030;-44
2021/08/04 03:06:59;;;;;;;3.78;3.42;;;;;;;19.78;64.26;100455.59;5028427;28;20045;-46
2021/08/04 03:09:25;;;;;;;3.78;3.30;;;;;;;19.80;64.15;100458.16;5026888;28;20039;-44
2021/08/04 03:11:50;;;;;;;3.42;3.15;;;;;;;19.79;64.28;100457.31;5036328;28;20451;-45
2021/08/04 03:14:15;;;;;;;4.10;3.70;;;;;;;19.81;64.13;100463.44;5049681;28;20029;-43
2021/08/04 03:16:41;;;;;;;3.33;3.03;;;;;;;19.76;64.22;100457.47;5007114;28;20025;-43
2021/08/04 03:19:07;;;;;;;3.47;3.17;;;;;;;19.75;64.16;100455.75;5010388;28;20109;-43
2021/08/04 03:21:32;;;;;;;3.17;2.97;;;;;;;19.76;64.25;100457.47;5035098;28;20112;-44
2021/08/04 03:23:57;;;;;;;3.67;3.38;;;;;;;19.78;64.16;100452.03;5031386;28;20362;-43
2021/08/04 03:26:23;;;;;;;2.70;2.50;;;;;;;19.75;64.18;100453.91;5027975;28;20045;-44
2021/08/04 03:28:48;;;;;;;3.42;3.13;;;;;;;19.75;64.19;100447.72;5030908;28;20029;-43
2021/08/04 03:31:13;;;;;;;3.80;2.75;;;;;;;19.78;64.04;100452.91;5028630;28;20539;-44
2021/08/04 03:33:39;;;;;;;2.78;2.55;;;;;;;19.76;64.19;100452.13;5037402;28;20489;-43
2021/08/04 03:36:04;;;;;;;3.50;3.00;;;;;;;19.77;64.05;100455.66;5036463;28;20032;-43
2021/08/04 03:38:29;;;;;;;3.33;3.08;;;;;;;19.74;63.92;100451.34;5033591;28;20491;-44
2021/08/04 03:40:55;;;;;;;3.17;2.88;;;;;;;19.71;64.25;100451.50;5032066;28;20056;-46
2021/08/04 03:43:20;;;;;;;2.97;2.78;;;;;;;19.75;64.14;100461.09;5031625;28;20053;-43
2021/08/04 03:45:45;;;;;;;2.85;2.65;;;;;;;19.76;64.30;100462.81;5031069;28;20096;-44
2021/08/04 03:48:11;;;;;;;3.08;2.88;;;;;;;19.74;64.15;100462.06;5023037;28;20388;-44
2021/08/04 03:50:37;;;;;;;2.80;2.60;;;;;;;19.74;64.06;100470.06;5025351;28;20500;-44
2021/08/04 03:53:03;;;;;;;2.78;2.58;;;;;;;19.74;64.22;100465.56;5023906;28;20037;-43
2021/08/04 03:55:28;;;;;;;3.50;3.20;;;;;;;19.73;64.15;100468.31;5031940;28;20021;-43
2021/08/04 03:57:53;;;;;;;3.42;3.10;;;;;;;19.73;64.24;100468.31;5031774;28;20030;-45
2021/08/04 04:00:19;;;;;;;3.33;2.65;;;;;;;19.73;64.23;100473.66;5031859;28;20472;-43
2021/08/04 04:02:44;;;;;;;2.95;2.75;;;;;;;19.73;64.11;100469.19;5023315;28;20033;-43
2021/08/04 04:05:09;;;;;;;4.70;3.00;;;;;;;19.72;64.12;100472.81;5035265;28;20026;-43
2021/08/04 04:07:35;;;;;;;2.80;2.60;;;;;;;19.73;64.00;100474.56;5028983;28;20048;-43
2021/08/04 04:10:01;;;;;;;2.65;2.45;;;;;;;19.71;64.07;100471.06;5032797;28;20025;-44
2021/08/04 04:12:26;;;;;;;3.10;2.80;;;;;;;19.72;63.98;100479.97;5032185;28;20025;-45
2021/08/04 04:14:51;;;;;;;3.33;2.60;;;;;;;19.71;64.06;100468.41;5036795;28;20578;-43
2021/08/04 04:17:16;;;;;;;2.80;2.60;;;;;;;19.70;64.07;100476.50;5035284;28;20018;-44
2021/08/04 04:19:42;;;;;;;2.72;2.53;;;;;;;19.71;64.01;100475.56;5034589;28;20036;-43
2021/08/04 04:22:07;;;;;;;2.50;2.30;;;;;;;19.69;64.04;100478.31;5035058;28;20404;-45
2021/08/04 04:24:32;;;;;;;2.92;2.30;;;;;;;19.70;64.00;100481.84;5035759;28;20040;-43
2021/08/04 04:26:58;;;;;;;2.70;2.50;;;;;;;19.68;64.06;100486.44;5029964;28;20173;-43
2021/08/04 04:32:44;;;;;;;4.45;2.40;;;;;;;19.67;64.08;100484.69;5039964;28;20044;-43
2021/08/04 04:35:10;;;;;;;2.80;2.60;;;;;;;19.67;64.03;100495.41;5034892;28;20385;-43
2021/08/04 04:37:35;;;;;;;2.78;2.58;;;;;;;19.65;64.18;100497.28;5036431;28;20029;-45
2021/08/04 04:40:00;;;;;;;2.80;2.60;;;;;;;19.64;64.06;100500.91;5033265;28;20026;-43
2021/08/04 04:42:26;;;;;;;2.88;2.20;;;;;;;19.63;64.10;100493.84;5029915;28;20025;-43
2021/08/04 04:44:51;;;;;;;2.80;2.60;;;;;;;19.63;64.24;100497.34;5038317;28;20032;-46
2021/08/04 04:47:16;;;;;;;3.08;2.78;;;;;;;19.66;64.02;100501.69;5038357;28;20028;-43
2021/08/04 04:49:42;;;;;;;2.88;2.67;;;;;;;19.63;64.23;100508.06;5027555;28;20037;-44
2021/08/04 04:52:07;;;;;;;2.60;2.40;;;;;;;19.66;63.97;100509.69;5034036;28;20029;-43
2021/08/04 04:54:32;;;;;;;3.10;2.80;;;;;;;19.57;64.23;100501.19;5014188;28;20505;-43
2021/08/04 04:56:58;;;;;;;2.78;2.50;;;;;;;19.62;64.11;100509.00;5029485;28;20021;-46
2021/08/04 04:59:23;;;;;;;3.53;2.42;;;;;;;19.60;64.15;100509.06;5032820;28;20052;-43
2021/08/04 05:01:48;;;;;;;2.72;2.53;;;;;;;19.59;64.17;100510.03;5033725;28;20034;-43
2021/08/04 05:04:14;;;;;;;2.60;2.40;;;;;;;19.61;64.14;100515.31;5033229;28;20512;-43
2021/08/04 05:06:41;;;;;;;2.80;2.53;;;;;;;19.60;64.01;100519.78;5033586;28;20022;-43
2021/08/04 05:09:07;;;;;;;3.53;2.58;;;;;;;19.57;64.15;100525.28;5027577;28;20641;-44
2021/08/04 05:11:32;;;;;;;2.83;2.63;;;;;;;19.58;64.32;100520.81;5026209;28;20021;-43
2021/08/04 05:13:57;;;;;;;2.35;2.20;;;;;;;19.58;64.23;100518.13;5044305;28;20040;-43
2021/08/04 05:16:23;;;;;;;2.83;2.63;;;;;;;19.57;64.07;100524.44;5031613;28;20025;-46
2021/08/04 05:18:51;;;;;;;3.05;2.80;;;;;;;19.56;64.14;100525.34;5034031;28;20095;-43
2021/08/04 05:21:17;;;;;;;3.35;2.90;;;;;;;19.53;64.07;100523.69;5024302;28;20029;-44
2021/08/04 05:23:42;;;;;;;2.30;2.10;;;;;;;19.51;64.21;100519.38;5036014;28;20021;-43
2021/08/04 05:26:08;;;;;;;3.45;2.38;;;;;;;19.55;64.35;100528.97;5038949;28;20057;-52
2021/08/04 05:28:33;;;;;;;2.95;2.50;;;;;;;19.52;64.25;100530.00;5016348;28;20561;-43
2021/08/04 05:30:58;;;;;;;2.70;2.50;;;;;;;19.54;64.22;100527.25;5030670;28;20033;-44
2021/08/04 05:33:24;;;;;;;2.92;2.28;;;;;;;19.51;64.21;100528.28;5032796;28;20064;-43
2021/08/04 05:35:50;;;;;;;3.00;2.53;;;;;;;19.51;64.39;100525.59;5036496;28;20020;-43
2021/08/04 05:38:15;;;;;;;2.67;2.47;;;;;;;19.52;64.33;100530.00;5029183;28;20033;-44
2021/08/04 05:40:41;;;;;;;2.97;2.67;;;;;;;19.50;64.32;100523.84;5033950;28;20525;-44
2021/08/04 05:43:06;;;;;;;2.60;2.40;;;;;;;19.50;64.32;100526.50;5029457;28;20028;-43
2021/08/04 05:45:31;;;;;;;2.53;2.35;;;;;;;19.52;64.19;100529.13;5033552;28;20131;-43
2021/08/04 05:47:58;;;;;;;2.95;2.75;;;;;;;19.52;64.10;100529.13;5030221;28;20037;-43
2021/08/04 05:50:23;;;;;;;2.60;2.20;;;;;;;19.51;64.20;100527.38;5029888;28;20439;-43
2021/08/04 05:52:50;;;;;;;3.42;2.67;;;;;;;19.50;64.06;100526.50;5026636;28;20025;-43
2021/08/04 05:55:16;;;;;;;2.78;2.50;;;;;;;19.51;64.11;100525.59;5037828;28;20018;-44
2021/08/04 05:57:41;;;;;;;2.50;2.20;;;;;;;19.49;64.11;100519.44;5030329;28;20405;-43
2021/08/04 06:00:07;;;;;;;2.88;2.55;;;;;;;19.49;64.07;100519.44;5032595;28;20021;-43
2021/08/04 06:02:33;;;;;;;2.40;2.20;;;;;;;19.49;63.96;100520.31;5034817;28;20079;-45
2021/08/04 06:04:59;;;;;;;2.42;2.22;;;;;;;19.51;64.08;100532.75;5032326;28;20400;-43
2021/08/04 06:07:24;;;;;;;3.20;2.47;;;;;;;19.49;64.06;100530.13;5029598;28;20025;-44
2021/08/04 06:09:49;;;;;;;2.70;2.50;;;;;;;19.43;64.35;100523.28;5033363;28;20104;-44
2021/08/04 06:12:15;;;;;;;2.30;2.10;;;;;;;19.46;64.56;100530.28;5030135;28;20032;-43
2021/08/04 06:14:40;;;;;;;3.05;2.35;;;;;;;19.45;64.24;100533.91;5026976;28;20679;-43
2021/08/04 06:17:05;;;;;;;3.08;2.42;;;;;;;19.47;64.37;100537.34;5038606;28;20017;-46
2021/08/04 06:19:31;;;;;;;2.72;2.53;;;;;;;19.49;64.35;100524.78;5015345;28;20029;-43
2021/08/04 06:21:58;;;;;;;2.42;2.22;;;;;;;19.49;64.18;100533.69;5032890;28;20029;-43
2021/08/04 06:24:25;;;;;;;2.63;2.42;;;;;;;19.50;64.36;100539.88;5033555;28;20087;-43
2021/08/04 06:26:50;;;;;;;2.30;2.13;;;;;;;19.49;64.10;100540.84;5029422;28;20030;-43
2021/08/04 06:29:17;;;;;;;3.03;2.83;;;;;;;19.48;64.42;100539.13;5032179;28;20424;-43
2021/08/04 06:31:42;;;;;;;2.83;2.47;;;;;;;19.46;64.48;100540.97;5031842;28;20465;-44
2021/08/04 06:34:07;;;;;;;2.58;2.38;;;;;;;19.49;64.10;100546.19;5038785;28;20028;-43
2021/08/04 06:36:32;;;;;;;3.33;2.45;;;;;;;19.48;64.79;100547.13;5032381;28;20021;-43
2021/08/04 06:38:58;;;;;;;2.75;2.40;;;;;;;19.51;64.33;100544.31;5035651;28;20112;-45
2021/08/04 06:41:23;;;;;;;2.58;2.38;;;;;;;19.48;64.45;100547.13;5032280;28;20030;-52
2021/08/04 06:43:48;;;;;;;2.20;2.05;;;;;;;19.47;64.53;100548.06;5032996;28;20029;-43
2021/08/04 06:46:14;;;;;;;2.50;2.30;;;;;;;19.48;64.39;100547.97;5025625;28;20053;-43
2021/08/04 06:48:39;;;;;;;2.53;2.30;;;;;;;19.46;64.48;100554.34;5029272;28;20037;-45
2021/08/04 06:51:05;;;;;;;2.58;2.38;;;;;;;19.43;64.88;100552.69;5034942;28;20144;-43
2021/08/04 06:53:30;;;;;;;2.40;2.20;;;;;;;19.45;64.27;100552.63;5026165;28;20024;-45
2021/08/04 06:55:55;;;;;;;2.40;2.20;;;;;;;19.45;64.88;100549.94;5027651;28;20427;-43
2021/08/04 06:58:21;;;;;;;2.45;2.25;;;;;;;19.45;64.81;100555.31;5033597;28;20037;-45
2021/08/04 07:00:46;;;;;;;3.50;2.42;;;;;;;19.46;64.77;100554.34;5025106;28;20040;-43
2021/08/04 07:03:11;;;;;;;2.58;2.38;;;;;;;19.44;64.60;100553.56;5036717;28;20029;-44
2021/08/04 07:05:37;;;;;;;2.78;2.47;;;;;;;19.40;64.60;100541.28;5031041;28;20026;-44
2021/08/04 07:08:04;;;;;;;2.53;2.33;;;;;;;19.43;64.73;100542.00;5015694;28;20061;-43
2021/08/04 07:10:29;;;;;;;2.35;2.15;;;;;;;19.43;64.95;100547.34;5029237;28;20092;-43
2021/08/04 07:12:55;;;;;;;2.28;2.08;;;;;;;19.44;64.85;100542.88;5029937;28;20017;-43
2021/08/04 07:15:20;;;;;;;2.92;2.72;;;;;;;19.46;64.73;100551.69;5028147;28;20386;-43
2021/08/04 07:17:48;;;;;;;3.53;3.03;;;;;;;19.45;64.79;100555.31;5028824;28;20020;-43
2021/08/04 07:20:14;;;;;;;3.38;2.22;;;;;;;19.48;64.61;100555.16;5032107;28;20021;-44
2021/08/04 07:22:40;;;;;;;2.47;2.28;;;;;;;19.45;64.52;100549.94;5028972;28;20057;-43
2021/08/04 07:25:08;;;;;;;1.95;1.85;;;;;;;19.40;64.77;100546.66;5033863;28;20028;-43
2021/08/04 07:27:34;;;;;;;2.33;2.13;;;;;;;19.41;64.73;100556.41;5038953;28;20104;-43
2021/08/04 07:29:59;;;;;;;2.28;2.08;;;;;;;19.44;64.90;100561.59;5029800;28;20021;-43
2021/08/04 07:32:25;;;;;;;2.42;2.28;;;;;;;19.42;64.80;100560.78;5030501;28;20022;-43
2021/08/04 07:34:50;;;;;;;2.30;2.10;;;;;;;19.41;64.90;100559.06;5037151;28;20025;-43
2021/08/04 07:37:15;;;;;;;1.60;1.50;;;;;;;19.40;64.56;100554.66;5031056;28;20027;-43
2021/08/04 07:39:44;;;;;;;2.25;2.05;;;;;;;19.43;64.77;100559.84;5035788;28;20021;-43
2021/08/04 07:42:09;;;;;;;2.53;2.00;;;;;;;19.46;64.66;100559.69;5031083;28;20373;-43
2021/08/04 07:44:35;;;;;;;2.47;2.28;;;;;;;19.45;64.46;100555.31;5027124;28;20033;-43
2021/08/04 07:47:01;;;;;;;3.42;2.70;;;;;;;19.42;64.75;100559.00;5031761;28;20377;-43
2021/08/04 07:49:26;;;;;;;3.50;2.42;;;;;;;19.41;64.75;100561.75;5031611;28;20487;-43
2021/08/04 07:51:51;;;;;;;2.53;2.33;;;;;;;19.41;64.66;100553.72;5034417;28;20021;-44
2021/08/04 07:54:17;;;;;;;2.95;2.40;;;;;;;19.40;64.89;100550.16;5031981;28;20021;-43
2021/08/04 07:56:42;;;;;;;2.08;1.98;;;;;;;19.38;64.58;100560.09;5035664;28;20018;-43
2021/08/04 07:59:07;;;;;;;2.55;2.35;;;;;;;19.42;64.63;100558.13;5029910;28;20025;-51
2021/08/04 08:01:33;;;;;;;2.67;2.47;;;;;;;19.40;64.37;100554.66;5035150;28;20594;-43
2021/08/04 08:03:58;;;;;;;2.20;2.10;;;;;;;19.40;64.69;100546.66;5036431;28;20439;-43
2021/08/04 08:06:23;;;;;;;2.58;2.38;;;;;;;19.39;64.48;100555.59;5042284;28;20021;-43
2021/08/04 08:08:49;;;;;;;2.92;2.22;;;;;;;19.38;64.62;100565.44;5037848;22;20017;-56
2021/08/04 08:11:14;;;;;;;2.20;2.03;;;;;;;19.38;64.30;100554.75;5021808;28;20121;-52
2021/08/04 08:13:39;;;;;;;2.42;2.22;;;;;;;19.37;64.56;100555.66;5022738;28;20025;-55
2021/08/04 08:16:05;;;;;;;2.00;1.90;;;;;;;19.38;64.54;100559.22;5018915;28;20018;-56
2021/08/04 08:18:30;;;;;;;2.30;2.13;;;;;;;19.35;64.16;100555.72;5017551;28;20473;-52
2021/08/04 08:20:56;;;;;;;3.85;2.42;;;;;;;19.36;64.52;100560.16;5014650;28;20105;-53
2021/08/04 08:23:21;;;;;;;2.40;2.20;;;;;;;19.35;64.32;100561.06;5013197;28;20026;-52
2021/08/04 08:25:46;;;;;;;2.70;2.50;;;;;;;19.36;64.28;100567.31;5013759;28;20022;-52
2021/08/04 08:28:12;;;;;;;2.80;2.60;;;;;;;19.36;64.34;100565.50;5012502;28;20099;-54
2021/08/04 08:30:37;;;;;;;2.35;2.25;;;;;;;19.35;64.25;100562.91;5013694;28;20477;-53
2021/08/04 08:33:04;;;;;;;2.67;2.47;;;;;;;19.34;64.36;100562.03;5014279;28;20392;-56
2021/08/04 08:35:30;;;;;;;2.47;2.28;;;;;;;19.36;64.38;100562.84;5014242;28;20036;-58
2021/08/04 08:37:59;;;;;;;2.40;2.20;;;;;;;19.36;64.06;100565.50;5014095;28;20760;-52
2021/08/04 08:40:24;;;;;;;2.92;2.63;;;;;;;19.36;64.14;100559.28;5014305;28;20491;-55
2021/08/04 08:42:50;;;;;;;2.70;2.50;;;;;;;19.36;64.13;100561.94;5014304;28;20140;-56
2021/08/04 08:45:15;;;;;;;2.75;2.55;;;;;;;19.36;64.40;100557.47;5014112;28;20049;-55
2021/08/04 08:47:42;;;;;;;2.70;2.30;;;;;;;19.35;64.33;100554.88;5013830;28;20409;-50
2021/08/04 08:50:08;;;;;;;2.50;2.30;;;;;;;19.36;64.15;100552.13;5014211;28;20022;-52
2021/08/04 08:52:34;;;;;;;2.70;2.50;;;;;;;19.40;64.33;100557.34;5013799;28;20053;-56
2021/08/04 08:55:01;;;;;;;2.13;2.00;;;;;;;19.40;64.25;100552.84;5011271;28;20075;-55
2021/08/04 08:57:26;;;;;;;2.63;2.13;;;;;;;19.42;63.99;100544.75;5012174;28;20850;-55
2021/08/04 08:59:55;;;;;;;2.30;2.10;;;;;;;19.41;63.93;100537.69;5014119;28;20071;-52
2021/08/04 09:02:21;;;;;;;2.90;2.70;;;;;;;19.43;64.06;100546.47;5012202;28;20029;-55
2021/08/04 09:05:00;;;;;;;2.40;2.20;;;;;;;19.41;63.89;100543.88;5013164;28;20409;-56
2021/08/04 09:07:32;;;;;;;2.00;1.90;;;;;;;19.39;64.08;100547.56;5013354;28;20125;-55
2021/08/04 09:09:58;;;;;;;2.63;2.42;;;;;;;19.40;63.97;100550.16;5012887;28;20036;-54
2021/08/04 09:12:24;;;;;;;2.50;2.30;;;;;;;19.41;64.10;100538.53;5013578;28;20025;-51
2021/08/04 09:14:49;;;;;;;2.55;2.35;;;;;;;19.39;64.06;100543.09;5013556;28;20029;-55
2021/08/04 09:17:16;;;;;;;2.22;2.10;;;;;;;19.39;64.07;100542.22;5013292;28;20018;-55
2021/08/04 09:19:47;;;;;;;2.20;2.10;;;;;;;19.41;64.04;100541.19;5013697;28;20030;-57
2021/08/04 09:22:24;;;;;;;1.85;1.75;;;;;;;19.41;64.08;100540.34;4995048;28;20025;-55
2021/08/04 09:25:07;;;;;;;2.40;2.13;;;;;;;19.44;64.00;100540.22;5011071;28;20516;-53
2021/08/04 09:27:38;;;;;;;2.33;2.22;;;;;;;19.43;63.77;100538.44;5011068;28;20120;-55
2021/08/04 09:30:03;;;;;;;2.17;1.98;;;;;;;19.42;63.87;100537.59;5013264;28;20029;-51
2021/08/04 09:32:31;;;;;;;2.40;2.30;;;;;;;19.45;63.93;100532.09;5028197;28;20022;-57
2021/08/04 09:34:57;;;;;;;2.28;2.10;;;;;;;19.46;64.04;100535.63;5012600;28;20029;-52
2021/08/04 09:37:22;;;;;;;2.15;2.05;;;;;;;19.48;63.87;100531.94;5013109;28;20064;-56
2021/08/04 09:39:57;;;;;;;2.47;2.28;;;;;;;19.52;63.88;100538.00;5011168;28;20024;-55
2021/08/04 09:42:49;;;;;;;2.40;2.20;;;;;;;19.53;63.53;100542.41;5012711;28;20014;-56
2021/08/04 09:45:38;;;;;;;2.20;2.10;;;;;;;19.49;63.75;100540.84;5010581;28;20041;-50
2021/08/04 09:48:09;;;;;;;2.72;2.35;;;;;;;19.52;63.95;100537.13;5011880;28;20041;-52
2021/08/04 09:50:55;;;;;;;1.87;1.77;;;;;;;19.52;63.83;100535.34;5012514;28;20097;-52
2021/08/04 09:53:24;;;;;;;2.28;2.08;;;;;;;19.49;63.60;100532.81;5011962;28;20272;-55
2021/08/04 09:56:12;;;;;;;2.35;2.15;;;;;;;19.51;63.61;100516.69;5012444;28;20445;-50
2021/08/04 09:58:40;;;;;;;2.00;1.90;;;;;;;19.50;63.99;100523.84;5012575;28;20653;-57
2021/08/04 10:01:06;;;;;;;2.05;1.95;;;;;;;19.55;63.90;100520.94;4995400;28;20124;-52
2021/08/04 10:03:33;;;;;;;2.38;2.17;;;;;;;19.48;63.61;100520.38;5012388;28;20444;-52
2021/08/04 10:05:58;;;;;;;2.78;2.10;;;;;;;19.53;63.82;100514.78;5012358;28;20076;-55
2021/08/04 10:08:23;;;;;;;2.47;2.28;;;;;;;19.52;63.75;100515.75;5012342;28;20408;-56
2021/08/04 10:10:53;;;;;;;2.63;2.42;;;;;;;19.55;63.68;100513.81;5012185;28;20112;-56
2021/08/04 10:13:24;;;;;;;2.35;2.20;;;;;;;19.56;63.70;100522.66;5011653;28;20061;-53
2021/08/04 10:15:57;;;;;;;2.50;2.30;;;;;;;19.56;63.69;100518.19;5027700;28;20049;-52
2021/08/04 10:18:30;;;;;;;2.08;1.98;;;;;;;19.58;63.65;100510.94;5010428;28;20038;-51
2021/08/04 10:21:04;;;;;;;2.20;2.00;;;;;;;19.58;63.59;100513.63;5011582;28;20109;-52
2021/08/04 10:23:32;;;;;;;2.25;2.10;;;;;;;19.58;63.68;100516.28;5011492;28;20046;-54
2021/08/04 10:25:59;;;;;;;2.50;2.30;;;;;;;19.59;63.69;100515.38;5011995;28;20097;-52
2021/08/04 10:28:26;;;;;;;2.60;2.40;;;;;;;19.58;63.74;100507.44;5012153;28;20026;-55
2021/08/04 10:30:52;;;;;;;2.40;2.20;;;;;;;19.58;63.63;100508.28;5014618;28;20036;-50
2021/08/04 10:33:17;;;;;;;2.33;2.17;;;;;;;19.58;63.46;100502.06;5009366;28;20025;-54
2021/08/04 10:35:51;;;;;;;2.60;2.40;;;;;;;19.57;63.63;100506.53;5011912;28;20444;-54
2021/08/04 10:38:23;;;;;;;1.98;1.88;;;;;;;19.58;63.60;100505.59;4994368;28;20021;-55
2021/08/04 10:41:11;;;;;;;2.55;2.30;;;;;;;19.59;63.67;100504.69;5011618;28;20014;-52
2021/08/04 10:43:39;;;;;;;2.40;2.20;;;;;;;19.64;63.71;100506.25;5011311;28;20084;-53
2021/08/04 10:46:30;;;;;;;2.50;2.30;;;;;;;19.66;63.66;100507.03;5011813;28;20492;-53
2021/08/04 10:49:15;;;;;;;2.30;2.10;;;;;;;19.61;63.44;100502.78;5011282;28;20405;-54
2021/08/04 10:51:43;;;;;;;1.83;1.73;;;;;;;19.59;63.85;100498.44;5007714;28;20052;-55
2021/08/04 10:54:14;;;;;;;2.20;2.10;;;;;;;19.60;63.73;100505.53;5010133;28;20568;-49
2021/08/04 10:56:46;;;;;;;;;;;;;;;19.61;63.57;100494.75;5011735;28;20145;-55
2021/08/04 10:59:11;;;;;;;2.45;2.25;;;;;;;19.61;63.79;100502.78;5011320;28;19996;-53
2021/08/04 11:01:53;;;;;;;2.72;2.53;;;;;;;19.58;63.32;100500.25;5011098;28;20557;-50
2021/08/04 11:04:28;;;;;;;2.80;2.60;;;;;;;19.61;63.52;100501.94;5010556;28;20038;-55
2021/08/04 11:07:08;;;;;;;2.50;2.30;;;;;;;19.59;63.53;100496.66;5006815;28;20499;-54
2021/08/04 11:09:43;;;;;;;2.47;2.28;;;;;;;19.63;63.62;100496.50;5010193;28;20045;-51
2021/08/04 11:12:10;;;;;;;3.65;2.17;;;;;;;19.61;63.46;100497.44;5011480;28;20062;-57
2021/08/04 11:14:55;;;;;;;2.15;1.95;;;;;;;19.64;63.57;100496.41;5011398;28;20552;-55
2021/08/04 11:17:25;;;;;;;3.47;2.40;;;;;;;19.60;63.45;100498.38;5010518;28;20029;-53
2021/08/04 11:19:56;;;;;;;2.20;2.10;;;;;;;19.63;63.35;100494.69;5011495;28;20026;-53
2021/08/04 11:22:35;;;;;;;2.65;2.47;;;;;;;19.64;63.34;100490.19;5011147;28;20022;-56
2021/08/04 11:25:03;;;;;;;2.63;2.42;;;;;;;19.67;63.64;100496.25;5010282;28;20022;-53
2021/08/04 11:27:31;;;;;;;2.20;2.10;;;;;;;19.66;63.50;100499.88;5010397;28;20064;-52
2021/08/04 11:29:58;;;;;;;2.00;1.90;;;;;;;19.64;63.37;100492.88;5010815;28;20026;-50
2021/08/04 11:32:29;;;;;;;2.28;2.17;;;;;;;19.66;63.45;100494.53;5010724;28;20529;-55
2021/08/04 11:34:55;;;;;;;2.15;2.05;;;;;;;19.65;63.31;100486.56;5010471;28;20033;-55
2021/08/04 11:37:21;;;;;;;2.33;2.22;;;;;;;19.63;63.45;100483.13;5009625;28;20060;-57